ヌーク空港の過去48時間の天気

ヌーク空港 (Godthaab / Nuuk)

現在時刻: 9/16 01:07 -02 (9/16 03:07 UTC) 以下の時間は現地時間です。

過去48時間のMETAR気象情報
時間 風向 風速(m/s) 視程 気温(℃) 湿度(%) 気圧(hPa) 天気現象
16 00:50 北東 4 - 2 93 1019
15 23:50 北東 4 - 2 87 1020
15 22:50 北東 3 - 2 93 1020
15 21:50 東北東 3 - 3 87 1020
15 20:50 静穏 0 - 2 93 1020
15 19:50 北北西 1 - 4 81 1020
15 18:50 西 2 - 5 75 1019
15 17:50 南西 2 10km以上 6 70 1019
15 16:50 南西 2 10km以上 6 70 1019
15 15:50 2 10km以上 5 75 1019
15 14:50 南西 4 10km以上 5 81 1019 周辺でしゅう雨
15 13:50 3 10km以上 6 76 1019
15 12:50 南南西 3 10km以上 5 81 1019
15 11:50 2 10km以上 5 75 1018
15 10:50 2 10km以上 4 87 1018
15 09:50 南南西 2 10km以上 3 93 1018
15 08:50 静穏 0 10km以上 2 93 1017
15 07:50 静穏 0 - 1 93 1017
15 06:50 不定 2 - 1 93 1016 弱いしゅう雪
15 05:50 西 1 - 2 93 1015 弱い雪
15 04:50 1 - 2 93 1015
15 03:50 南南東 1 - 3 87 1014 弱い雨
15 02:50 静穏 0 - 2 93 1013
15 01:50 静穏 0 10km以上 2 93 1013
15 00:50 2 10km以上 3 87 1012
14 23:50 2 10km以上 3 87 1011
14 22:50 不定 1 10km以上 3 87 1011
14 21:50 2 10km以上 3 87 1010
14 20:50 北北西 5 10km以上 4 87 1009
14 19:50 北北西 3 10km以上 4 87 1008
14 18:50 北西 3 10km以上 5 81 1007
14 17:50 北北西 3 10km以上 6 76 1006
14 16:50 西 4 10km以上 6 76 1005
14 15:50 2 10km以上 6 81 1004
14 14:50 西南西 1 10km以上 4 87 1003 弱いしゅう雨
14 13:50 不定 1 10km以上 6 81 1002 周辺でしゅう雨
14 12:50 不定 1 10km以上 4 93 1001
14 11:50 北北西 2 10km以上 2 100 1001
14 10:50 西 3 10km以上 2 93 1000 弱いしゅう雨
14 09:50 5 10km以上 3 93 999 弱いしゅう雨
14 08:50 5 10km以上 4 87 999
14 07:50 5 10km以上 3 93 998
14 06:50 5 10km以上 3 93 998
14 05:50 4 - 3 93 998
14 04:50 5 - 3 93 998 弱いしゅう雪
14 03:50 11 - 2 100 997 弱い雪 もや
14 02:50 南南東 13 - 2 93 997 弱い雪
14 01:50 南南東 14 - 2 93 996 弱い雪
BGGH 160250Z AUTO 05008KT 9999NDV NCD 02/01 Q1019
BGGH 160150Z AUTO 05007KT 9999NDV NCD 02/00 Q1020
BGGH 160050Z AUTO 05006KT 9999NDV NCD 02/01 Q1020
BGGH 152350Z AUTO 06005KT 9999NDV NCD 03/01 Q1020
BGGH 152250Z AUTO 00000KT 9999NDV NCD 02/01 Q1020
BGGH 152150Z AUTO 33002KT 9999NDV BKN019/// 04/01 Q1020
BGGH 152050Z AUTO 26003KT 9999NDV BKN024/// 05/01 Q1019
BGGH 151950Z 22003KT 9999 FEW015 SCT040 06/01 Q1019
BGGH 151850Z 23003KT 9999 FEW010 06/01 Q1019
BGGH 151750Z 17004KT 140V210 9999 FEW010 BKN090 05/01 Q1019
BGGH 151650Z 22008KT 9999 VCSH FEW005 SCT013 BKN040 05/02 Q1019
BGGH 151550Z 19005KT 160V230 9999 FEW010 SCT040 BKN085 06/02 Q1019
BGGH 151450Z 20005KT 180V240 9999 FEW015 BKN090 05/02 Q1019
BGGH 151350Z 19004KT 9999 SCT015 SCT027 05/01 Q1018
BGGH 151250Z 18004KT 9999 SCT020 04/02 Q1018
BGGH 151150Z 21003KT 9999 SCT022 03/02 Q1018
BGGH 151050Z 00000KT 9999 FEW014 SCT030 02/01 Q1017
BGGH 150950Z AUTO 00000KT 9999NDV BKN023/// 01/00 Q1017
BGGH 150850Z AUTO VRB03KT 5000NDV -SHSN BKN011/// OVC027/// 01/00 Q1016
BGGH 150750Z AUTO 27001KT 6000NDV -SN BKN015/// 02/01 Q1015
BGGH 150650Z AUTO 17002KT 9999NDV SCT033/// 02/01 Q1015
BGGH 150550Z AUTO 16002KT 9999NDV -RA FEW015/// BKN031/// 03/01 Q1014
BGGH 150450Z AUTO 00000KT 9999NDV FEW015/// FEW037/// 02/01 Q1013
BGGH 150350Z 00000KT 9999 SCT018 02/01 Q1013
BGGH 150250Z 36003KT 9999 SCT018 03/01 Q1012
BGGH 150150Z 01003KT 9999 BKN018 03/01 Q1011
BGGH 150050Z VRB02KT 9999 SCT017 03/01 Q1011
BGGH 142350Z 36003KT 9999 FEW016 03/01 Q1010
BGGH 142250Z 34009KT 9999 FEW020 04/02 Q1009
BGGH 142150Z 33005KT 9999 FEW020 04/02 Q1008
BGGH 142050Z 32005KT 290V350 9999 FEW010 SCT020TCU 05/02 Q1007
BGGH 141950Z 33005KT 310V010 9999 FEW016 SCT023 06/02 Q1006
BGGH 141850Z 27007KT 200V330 9999 FEW016 BKN025 06/02 Q1005
BGGH 141750Z 18004KT 9999 FEW015 BKN030 06/03 Q1004
BGGH 141650Z 24001KT 9999 -SHRA SCT015 BKN025 04/02 Q1003
BGGH 141550Z VRB01KT 9999 VCSH FEW010TCU SCT030 06/03 Q1002
BGGH 141450Z VRB02KT 9999 SCT015 BKN030 04/03 Q1001
BGGH 141350Z 33003KT 9999 FEW008 BKN030 02/02 Q1001
BGGH 141250Z 26005KT 220V280 9999 -SHRA OVC006 02/01 Q1000
BGGH 141150Z 17010KT 9999 -SHRA BKN010 OVC020 03/02 Q0999
BGGH 141050Z 17009KT 9999 FEW010 SCT020 BKN060 04/02 Q0999
BGGH 140950Z 18009KT 9999 FEW010 BKN018 03/02 Q0998
BGGH 140850Z 17010KT 9999 BKN020 OVC050 03/02 Q0998
BGGH 140750Z AUTO 18007KT 9999NDV BKN023/// 03/02 Q0998
BGGH 140650Z AUTO 18009KT 6000NDV -SHSN BKN009/// 03/02 Q0998
BGGH 140550Z AUTO 17021KT 2700NDV -SN BR BKN014/// 02/02 Q0997
BGGH 140450Z AUTO 16026KT 2800NDV -SN BKN019/// 02/01 Q0997
BGGH 140350Z AUTO 16028KT 3600NDV -SN OVC020/// 02/01 Q0996